Arklow Mill — EIJD9 — position and weather

sailwx.info

Track history (hours):
 
Tides and Currents Weather Stations Pressure Air Temp Water Temp Dewpoint Dewpoint Depression Visibility Wind Speed Wind Dir Waves Ship Positions

Arklow Mill

Last reported at 2014-Oct-24 22:33 UTC. Time now 2014-Oct-24 23:09 UTC.
Position N 51°03' E 001°50'.

Length 137 m; draft 8.4 m.

Type: Ship. MMSI: 250002022.

Date/timePositionNaut miles runAvg speedWind from/ knotsBaromVisibWave heightAir tempDewpointWater temp
2014-Oct-24 22:33N 51°03' E 001°50'0 0.2
2014-Oct-24 21:33N 51°03' E 001°49'6 5.9
2014-Oct-24 20:33N 51°01' E 001°41'8 8.1
2014-Oct-24 19:33N 50°55' E 001°32'17011.1
2014-Oct-24 04:15N 50°12' W 002°47'811.0
2014-Oct-24 03:33N 50°10' W 002°58'1110.6
2014-Oct-24 02:33N 50°08' W 003°14'1010.0
2014-Oct-24 01:33N 50°05' W 003°30'11 9.6
2014-Oct-24 00:27N 50°03' W 003°46'28810.0
2014-Oct-22 19:32N 52°09' W 010°39'1210.7
2014-Oct-22 18:26N 52°16' W 010°23'910.3
2014-Oct-22 17:32N 52°21' W 010°10'1210.0
2014-Oct-22 16:18N 52°29' W 009°54'  
2014-Oct-18 18:18N 52°35' W 009°39'810.3
2014-Oct-18 17:33N 52°32' W 009°51'16 7.5
2014-Oct-18 15:22N 52°46' W 010°06'7 7.2
2014-Oct-18 14:21N 52°53' W 010°09'6 7.4
2014-Oct-18 13:32N 52°59' W 010°12'7 7.0
2014-Oct-18 12:32N 53°06' W 010°16'7 7.0
2014-Oct-18 11:33N 53°12' W 010°19'7 6.7
2014-Oct-18 10:33N 53°19' W 010°23'6 6.1
2014-Oct-18 09:33N 53°25' W 010°25'5 5.4
2014-Oct-18 08:33N 53°30' W 010°27'5 5.3
2014-Oct-18 07:33N 53°35' W 010°26'7 7.0
2014-Oct-18 06:33N 53°42' W 010°24'7 7.3
2014-Oct-18 05:33N 53°50' W 010°24'7 7.3
2014-Oct-18 04:33N 53°57' W 010°24'7 6.9
2014-Oct-18 03:33N 54°04' W 010°24'8 7.6
2014-Oct-18 02:33N 54°12' W 010°24'9 9.0
2014-Oct-18 01:33N 54°20' W 010°21'9 8.9
2014-Oct-18 00:33N 54°28' W 010°14'10 9.6
2014-Oct-17 23:33N 54°36' W 010°04'24312.8
2014-Oct-17 04:33N 58°01' W 006°11'1212.0
2014-Oct-17 03:33N 58°11' W 005°56'1312.0
2014-Oct-17 02:26N 58°21' W 005°39'4511.5
2014-Oct-16 22:31N 58°41' W 004°23'1213.0
2014-Oct-16 21:33N 58°42' W 003°59'1313.3
2014-Oct-16 20:33N 58°42' W 003°34'1414.3
2014-Oct-16 19:33N 58°43' W 003°06'1413.5
2014-Oct-16 18:33N 58°45' W 002°40'  
Track history (hours):
 
Tides and Currents Weather Stations Pressure Air Temp Water Temp Dewpoint Dewpoint Depression Visibility Wind Speed Wind Dir Waves Ship Positions

Arklow Mill

Last reported at 2014-Oct-24 22:33 UTC. Time now 2014-Oct-24 23:09 UTC.
Position N 51°03' E 001°50'.

Length 137 m; draft 8.4 m.

Type: Ship. MMSI: 250002022.

Date/timePositionNaut miles runAvg speedWind from/ knotsBaromVisibWave heightAir tempDewpointWater temp
2014-Oct-24 22:33N 51°03' E 001°50'0 0.2
2014-Oct-24 21:33N 51°03' E 001°49'6 5.9
2014-Oct-24 20:33N 51°01' E 001°41'8 8.1
2014-Oct-24 19:33N 50°55' E 001°32'17011.1
2014-Oct-24 04:15N 50°12' W 002°47'811.0
2014-Oct-24 03:33N 50°10' W 002°58'1110.6
2014-Oct-24 02:33N 50°08' W 003°14'1010.0
2014-Oct-24 01:33N 50°05' W 003°30'11 9.6
2014-Oct-24 00:27N 50°03' W 003°46'28810.0
2014-Oct-22 19:32N 52°09' W 010°39'1210.7
2014-Oct-22 18:26N 52°16' W 010°23'910.3
2014-Oct-22 17:32N 52°21' W 010°10'1210.0
2014-Oct-22 16:18N 52°29' W 009°54'  
2014-Oct-18 18:18N 52°35' W 009°39'810.3
2014-Oct-18 17:33N 52°32' W 009°51'16 7.5
2014-Oct-18 15:22N 52°46' W 010°06'7 7.2
2014-Oct-18 14:21N 52°53' W 010°09'6 7.4
2014-Oct-18 13:32N 52°59' W 010°12'7 7.0
2014-Oct-18 12:32N 53°06' W 010°16'7 7.0
2014-Oct-18 11:33N 53°12' W 010°19'7 6.7
2014-Oct-18 10:33N 53°19' W 010°23'6 6.1
2014-Oct-18 09:33N 53°25' W 010°25'5 5.4
2014-Oct-18 08:33N 53°30' W 010°27'5 5.3
2014-Oct-18 07:33N 53°35' W 010°26'7 7.0
2014-Oct-18 06:33N 53°42' W 010°24'7 7.3
2014-Oct-18 05:33N 53°50' W 010°24'7 7.3
2014-Oct-18 04:33N 53°57' W 010°24'7 6.9
2014-Oct-18 03:33N 54°04' W 010°24'8 7.6
2014-Oct-18 02:33N 54°12' W 010°24'9 9.0
2014-Oct-18 01:33N 54°20' W 010°21'9 8.9
2014-Oct-18 00:33N 54°28' W 010°14'10 9.6
2014-Oct-17 23:33N 54°36' W 010°04'24312.8
2014-Oct-17 04:33N 58°01' W 006°11'1212.0
2014-Oct-17 03:33N 58°11' W 005°56'1312.0
2014-Oct-17 02:26N 58°21' W 005°39'4511.5
2014-Oct-16 22:31N 58°41' W 004°23'1213.0
2014-Oct-16 21:33N 58°42' W 003°59'1313.3
2014-Oct-16 20:33N 58°42' W 003°34'1414.3
2014-Oct-16 19:33N 58°43' W 003°06'1413.5
2014-Oct-16 18:33N 58°45' W 002°40'  

Dump ship's entire track history